createdAt,value
2018-12-10T00:01:02.651Z,96437.06
2018-12-10T00:03:36.933Z,96441.20
2018-12-10T00:06:06.484Z,96443.34
2018-12-10T00:08:38.474Z,96445.44
2018-12-10T00:11:07.770Z,96444.17
2018-12-10T00:13:37.107Z,96451.78
2018-12-10T00:16:06.852Z,96457.70
2018-12-10T00:18:40.213Z,96461.07
2018-12-10T00:21:10.488Z,96463.16
2018-12-10T00:23:39.943Z,96461.89
2018-12-10T00:26:09.372Z,96466.04
2018-12-10T00:28:39.502Z,96468.92
2018-12-10T00:31:09.649Z,96467.66
2018-12-10T00:33:39.052Z,96466.88
2018-12-10T00:36:11.905Z,96461.84
2018-12-10T00:38:42.026Z,96474.41
2018-12-10T00:41:11.448Z,96477.73
2018-12-10T00:43:40.789Z,96483.59
2018-12-10T00:46:10.230Z,96485.27
2018-12-10T00:48:39.563Z,96493.70
2018-12-10T00:51:09.130Z,96492.91
2018-12-10T00:53:38.884Z,96491.97
2018-12-10T00:56:08.183Z,96494.39
2018-12-10T00:58:37.587Z,96489.36
2018-12-10T01:01:07.060Z,96498.09
2018-12-10T01:03:36.371Z,96502.64
2018-12-10T01:06:05.712Z,96509.36
2018-12-10T01:08:35.130Z,96508.47
2018-12-10T01:11:05.282Z,96516.81
2018-12-10T01:13:34.648Z,96528.13
2018-12-10T01:16:05.579Z,96538.64
2018-12-10T01:18:35.708Z,96542.81
2018-12-10T01:21:05.963Z,96558.66
2018-12-10T01:23:35.360Z,96555.30
2018-12-10T01:26:04.659Z,96564.46
2018-12-10T01:28:34.638Z,96576.20
2018-12-10T01:31:07.242Z,96577.92
2018-12-10T01:33:37.572Z,96588.47
2018-12-10T01:36:07.124Z,96598.04
2018-12-10T01:38:36.424Z,96602.64
2018-12-10T01:41:06.562Z,96609.39
2018-12-10T01:43:37.699Z,96616.44
2018-12-10T01:46:07.816Z,96627.31
2018-12-10T01:48:37.179Z,96633.47
2018-12-10T01:51:06.708Z,96642.89
2018-12-10T01:53:37.006Z,96638.59
2018-12-10T01:56:06.411Z,96653.67
2018-12-10T02:17:08.500Z,96664.38
2018-12-10T02:19:37.717Z,96674.43
2018-12-10T02:22:08.100Z,96689.52
2018-12-10T02:24:39.516Z,96679.78
2018-12-10T02:27:11.144Z,96676.80
2018-12-10T02:29:40.532Z,96679.17
2018-12-10T02:32:09.844Z,96688.36
2018-12-10T02:34:42.402Z,96686.67
2018-12-10T02:37:11.715Z,96696.72
2018-12-10T02:39:44.523Z,96701.67
2018-12-10T02:42:13.898Z,96704.19
2018-12-10T02:44:43.469Z,96716.75
2018-12-10T02:47:13.595Z,96713.23
2018-12-10T02:49:43.764Z,96725.00
2018-12-10T02:52:14.993Z,96725.80
2018-12-10T02:54:45.013Z,96732.08
2018-12-10T02:57:14.314Z,96729.13
2018-12-10T02:59:44.616Z,96731.68
2018-12-10T03:02:16.623Z,96734.20
2018-12-10T03:04:45.961Z,96733.80
2018-12-10T03:07:15.366Z,96728.31
2018-12-10T03:09:59.553Z,96729.13
2018-12-10T03:12:29.086Z,96729.13
2018-12-10T03:14:58.464Z,96723.24
2018-12-10T03:17:27.856Z,96734.98
2018-12-10T03:19:57.203Z,96730.78
2018-12-10T03:22:26.686Z,96733.34
2018-12-10T03:24:56.819Z,96737.56
2018-12-10T03:27:26.071Z,96742.59
2018-12-10T03:29:55.394Z,96745.90
2018-12-10T03:32:24.843Z,96740.88
2018-12-10T03:34:54.345Z,96739.62
2018-12-10T03:37:24.741Z,96732.47
2018-12-10T03:39:54.889Z,96735.73
2018-12-10T03:42:24.268Z,96742.45
2018-12-10T03:44:53.637Z,96743.30
2018-12-10T03:47:23.040Z,96745.73
2018-12-10T03:49:53.429Z,96749.05
2018-12-10T03:52:22.761Z,96741.94
2018-12-10T03:54:52.139Z,96747.35
2018-12-10T03:57:22.217Z,96738.48
2018-12-10T03:59:52.295Z,96752.38
2018-12-10T04:02:21.714Z,96751.95
2018-12-10T04:04:51.185Z,96760.27
2018-12-10T04:07:21.532Z,96763.61
2018-12-10T04:09:50.828Z,96761.99
2018-12-10T04:12:20.210Z,96763.25
2018-12-10T04:14:49.545Z,96769.06
2018-12-10T04:17:18.839Z,96756.42
2018-12-10T04:19:48.177Z,96753.80
2018-12-10T04:22:19.146Z,96763.02
2018-12-10T04:24:48.689Z,96770.05
2018-12-10T04:27:17.991Z,96761.96
2018-12-10T04:29:48.002Z,96773.73
2018-12-10T04:32:17.231Z,96779.55
2018-12-10T04:34:46.540Z,96776.16
2018-12-10T04:37:18.424Z,96779.50
2018-12-10T04:39:47.770Z,96783.70
2018-12-10T04:42:17.291Z,96786.20
2018-12-10T04:44:48.140Z,96787.81
2018-12-10T04:47:18.297Z,96803.79
2018-12-10T04:49:47.660Z,96808.70
2018-12-10T04:52:17.069Z,96807.91
2018-12-10T04:54:46.438Z,96800.37
2018-12-10T04:57:15.780Z,96797.75
2018-12-10T04:59:52.612Z,96806.10
2018-12-10T05:02:16.476Z,96800.99
2018-12-10T05:04:45.821Z,96804.30
2018-12-10T05:07:15.562Z,96807.63
2018-12-10T05:09:45.060Z,96806.72
2018-12-10T05:12:14.542Z,96815.04
2018-12-10T05:15:14.562Z,96819.54
2018-12-10T05:17:43.926Z,96817.26
2018-12-10T05:20:13.220Z,96818.78
2018-12-10T05:22:42.648Z,96832.50
2018-12-10T05:25:12.098Z,96835.31
2018-12-10T05:27:41.406Z,96836.52
2018-12-10T05:30:10.760Z,96840.72
2018-12-10T05:32:40.196Z,96841.54
2018-12-10T05:35:09.540Z,96837.66
